Lee-on-the-Solent, United Kingdom
Current Conditions -  °F | °C
As of 3:50 PM on Thursday 30 Oct 2014 (Local Time) from EGHI Reporting Station
Scattered Clouds Scattered Clouds  
Wind Chill: 16°   Ceiling: Unl
Heat Index: 16°   Visibility: 6mi
Dew Point: 14°   Wind: 3mph
Humidity: 88%   Direction: NA
Pressure: 30.06"   Gusts: NA
Location:  50.8°N, 1.2°W
Report Text: EGHI 301550Z VRB03KT 9999 SCT016 16/14 Q1018
Loading
Personal Weather Stations






























Interactive Weather Map
Tropical Storm Tracking
New forecast layout! Learn more

10-Day Weather Forecast

Advertisements
Track Severe Weather on mobile